Terminal Aerodrome Forecast
Issued by NWS

Current Version | Previous Version | Graphics & Text | Print | Product List | Glossary On
Versions: 1 2 3 4 5 6 7 8 9 10 11 12 13 14 15 16 17 18 19 20 21 22 23 24 25 26 27
000
FTUS41 KPBZ 211400 AAA
TAFHLG
TAF AMD
KHLG 211422Z 2114/2212 25005KT P6SM SCT005 OVC015
      TEMPO 2114/2116 2SM -SHRA BKN004
     FM211600 26008KT P6SM -SHRA OVC015
     FM212100 29008KT P6SM VCSH BKN020=

USA.gov is the U.S. government's official web portal to all federal, state and local government web resources and services.